Norfolk Ns (Chambers Fld) Airport Norfolk US
ICAO: KNGU
IATA: NGU
Category: Medium
Scheduled Services: No

Elevation: 17 ft
TransAlt. 18000 ft.

Airport Communications:
APP:118.9
ATIS:118.425
CLNC DEL:120.7
DEP:125.2
NAVYNORFOLK HELI GND:29.895
CHAMBERS GND:121.8
AMC/ATOC:130.65
NAVYNORFOLK HELI TWR:126.375
BASE OPS:126.375
METRO:27.16
CHAMBERS TWR:124.3

KNGU Zoom In..

Runways:

(A) RW 10 length 8371 ft width 200 ft
ILS 108.95 / hdg 100

(B) RW 28 length 8371 ft width 200 ft
---- / hdg 280

Location; KNGU
Day. 25 / Time. 11.50 Zulu
* Altimeter: 29.76
* Temperature: 16° c. 60.8°f.
* Wind from: 170° Speed 05 kn.
Dewpoint: 15° c.
Visibility: 1 Statute Miles.
Clouds: Overcast 200 ft.
Conditions: Mist.

KNGU 251150Z 17005KT 1SM BR OVC002 16/15 A2976 RMK AO2 T01560150


Wind From 170°
Speed 05 kn.

  YouTube Music Video
 
jpsmedia.com for Web Design  worldairports.se 2018   terms of use